sensor_id;sensor_type;location;lat;lon;timestamp;P1;durP1;ratioP1;P2;durP2;ratioP2
40449;SDS011;41787;53.570;10.032;2022-09-09T00:04:29;73.60;;;36.80;;
40449;SDS011;41787;53.570;10.032;2022-09-09T00:07:16;81.03;;;37.25;;
40449;SDS011;41787;53.570;10.032;2022-09-09T00:09:59;74.00;;;36.08;;
40449;SDS011;41787;53.570;10.032;2022-09-09T00:15:11;92.32;;;41.40;;
40449;SDS011;41787;53.570;10.032;2022-09-09T00:17:39;90.70;;;40.45;;
40449;SDS011;41787;53.570;10.032;2022-09-09T00:20:16;99.72;;;43.10;;
40449;SDS011;41787;53.570;10.032;2022-09-09T00:25:32;95.45;;;39.35;;
40449;SDS011;41787;53.570;10.032;2022-09-09T00:28:00;103.40;;;42.67;;
40449;SDS011;41787;53.570;10.032;2022-09-09T00:30:28;100.28;;;42.65;;
40449;SDS011;41787;53.570;10.032;2022-09-09T00:33:00;91.80;;;40.60;;
40449;SDS011;41787;53.570;10.032;2022-09-09T00:35:31;104.60;;;39.78;;
40449;SDS011;41787;53.570;10.032;2022-09-09T00:38:00;108.38;;;42.60;;
40449;SDS011;41787;53.570;10.032;2022-09-09T00:40:32;99.95;;;41.38;;
40449;SDS011;41787;53.570;10.032;2022-09-09T00:43:03;104.70;;;40.88;;
40449;SDS011;41787;53.570;10.032;2022-09-09T00:48:04;108.15;;;39.58;;
40449;SDS011;41787;53.570;10.032;2022-09-09T00:58:30;93.10;;;35.92;;
40449;SDS011;41787;53.570;10.032;2022-09-09T01:01:04;82.63;;;34.90;;
40449;SDS011;41787;53.570;10.032;2022-09-09T01:03:37;85.38;;;32.88;;
40449;SDS011;41787;53.570;10.032;2022-09-09T01:06:18;79.43;;;33.38;;
40449;SDS011;41787;53.570;10.032;2022-09-09T01:08:52;74.60;;;31.73;;
40449;SDS011;41787;53.570;10.032;2022-09-09T01:14:19;66.53;;;30.40;;
40449;SDS011;41787;53.570;10.032;2022-09-09T01:16:50;65.07;;;29.42;;
40449;SDS011;41787;53.570;10.032;2022-09-09T01:19:19;73.75;;;31.70;;
40449;SDS011;41787;53.570;10.032;2022-09-09T01:21:54;68.95;;;30.33;;
40449;SDS011;41787;53.570;10.032;2022-09-09T01:24:27;60.35;;;29.45;;
40449;SDS011;41787;53.570;10.032;2022-09-09T01:26:56;64.53;;;29.40;;
40449;SDS011;41787;53.570;10.032;2022-09-09T01:29:24;73.13;;;31.10;;
40449;SDS011;41787;53.570;10.032;2022-09-09T01:31:54;65.55;;;31.35;;
40449;SDS011;41787;53.570;10.032;2022-09-09T01:34:21;70.45;;;30.60;;
40449;SDS011;41787;53.570;10.032;2022-09-09T01:36:49;72.63;;;31.50;;
40449;SDS011;41787;53.570;10.032;2022-09-09T01:39:17;83.72;;;32.45;;
40449;SDS011;41787;53.570;10.032;2022-09-09T01:41:44;72.85;;;31.40;;
40449;SDS011;41787;53.570;10.032;2022-09-09T01:44:10;73.35;;;30.48;;
40449;SDS011;41787;53.570;10.032;2022-09-09T01:46:36;80.53;;;32.92;;
40449;SDS011;41787;53.570;10.032;2022-09-09T01:49:03;71.72;;;30.55;;
40449;SDS011;41787;53.570;10.032;2022-09-09T01:51:29;72.13;;;31.58;;
40449;SDS011;41787;53.570;10.032;2022-09-09T01:53:55;76.05;;;32.70;;
40449;SDS011;41787;53.570;10.032;2022-09-09T02:06:44;82.10;;;34.25;;
40449;SDS011;41787;53.570;10.032;2022-09-09T02:09:11;78.15;;;32.33;;
40449;SDS011;41787;53.570;10.032;2022-09-09T02:11:38;76.43;;;31.85;;
40449;SDS011;41787;53.570;10.032;2022-09-09T02:14:15;85.53;;;32.80;;
40449;SDS011;41787;53.570;10.032;2022-09-09T02:16:42;93.63;;;34.22;;
40449;SDS011;41787;53.570;10.032;2022-09-09T02:19:26;84.25;;;33.88;;
40449;SDS011;41787;53.570;10.032;2022-09-09T02:21:54;84.20;;;32.50;;
40449;SDS011;41787;53.570;10.032;2022-09-09T02:24:21;85.20;;;33.38;;
40449;SDS011;41787;53.570;10.032;2022-09-09T02:26:48;84.15;;;31.95;;
40449;SDS011;41787;53.570;10.032;2022-09-09T02:29:20;97.78;;;34.70;;
40449;SDS011;41787;53.570;10.032;2022-09-09T02:31:48;88.38;;;34.08;;
40449;SDS011;41787;53.570;10.032;2022-09-09T02:34:15;83.07;;;32.95;;
40449;SDS011;41787;53.570;10.032;2022-09-09T02:36:43;80.97;;;33.35;;
40449;SDS011;41787;53.570;10.032;2022-09-09T02:39:10;88.60;;;34.00;;
40449;SDS011;41787;53.570;10.032;2022-09-09T02:41:37;84.05;;;32.10;;
40449;SDS011;41787;53.570;10.032;2022-09-09T02:44:14;80.38;;;33.65;;
40449;SDS011;41787;53.570;10.032;2022-09-09T02:49:37;76.18;;;30.52;;
40449;SDS011;41787;53.570;10.032;2022-09-09T02:52:13;68.18;;;31.25;;
40449;SDS011;41787;53.570;10.032;2022-09-09T02:54:42;67.22;;;29.80;;
40449;SDS011;41787;53.570;10.032;2022-09-09T02:57:13;65.88;;;30.73;;
40449;SDS011;41787;53.570;10.032;2022-09-09T02:59:42;76.55;;;30.83;;
40449;SDS011;41787;53.570;10.032;2022-09-09T03:02:08;73.85;;;31.55;;
40449;SDS011;41787;53.570;10.032;2022-09-09T03:04:36;67.63;;;28.83;;
40449;SDS011;41787;53.570;10.032;2022-09-09T03:07:02;70.43;;;30.10;;
40449;SDS011;41787;53.570;10.032;2022-09-09T03:09:28;76.07;;;29.60;;
40449;SDS011;41787;53.570;10.032;2022-09-09T03:11:54;74.50;;;28.98;;
40449;SDS011;41787;53.570;10.032;2022-09-09T03:14:21;66.05;;;28.15;;
40449;SDS011;41787;53.570;10.032;2022-09-09T03:16:49;64.28;;;28.85;;
40449;SDS011;41787;53.570;10.032;2022-09-09T03:19:15;72.47;;;28.80;;
40449;SDS011;41787;53.570;10.032;2022-09-09T03:21:43;66.45;;;28.45;;
40449;SDS011;41787;53.570;10.032;2022-09-09T03:24:09;62.97;;;26.42;;
40449;SDS011;41787;53.570;10.032;2022-09-09T03:26:35;71.35;;;28.80;;
40449;SDS011;41787;53.570;10.032;2022-09-09T03:29:02;67.68;;;28.50;;
40449;SDS011;41787;53.570;10.032;2022-09-09T03:31:31;63.35;;;27.48;;
40449;SDS011;41787;53.570;10.032;2022-09-09T03:33:57;69.75;;;27.30;;
40449;SDS011;41787;53.570;10.032;2022-09-09T03:36:23;67.22;;;28.67;;
40449;SDS011;41787;53.570;10.032;2022-09-09T03:38:51;57.42;;;25.98;;
40449;SDS011;41787;53.570;10.032;2022-09-09T03:41:17;58.70;;;26.30;;
40449;SDS011;41787;53.570;10.032;2022-09-09T03:43:43;57.30;;;26.15;;
40449;SDS011;41787;53.570;10.032;2022-09-09T03:46:09;75.50;;;27.63;;
40449;SDS011;41787;53.570;10.032;2022-09-09T03:48:35;64.70;;;27.58;;
40449;SDS011;41787;53.570;10.032;2022-09-09T03:51:01;60.63;;;26.05;;
40449;SDS011;41787;53.570;10.032;2022-09-09T03:53:28;60.15;;;26.77;;
40449;SDS011;41787;53.570;10.032;2022-09-09T03:55:55;65.70;;;25.85;;
40449;SDS011;41787;53.570;10.032;2022-09-09T03:58:24;59.17;;;25.40;;
40449;SDS011;41787;53.570;10.032;2022-09-09T04:03:20;58.30;;;26.03;;
40449;SDS011;41787;53.570;10.032;2022-09-09T04:05:48;49.92;;;25.55;;
40449;SDS011;41787;53.570;10.032;2022-09-09T04:08:14;65.47;;;26.52;;
40449;SDS011;41787;53.570;10.032;2022-09-09T04:10:40;56.80;;;25.48;;
40449;SDS011;41787;53.570;10.032;2022-09-09T04:13:07;53.03;;;25.48;;
40449;SDS011;41787;53.570;10.032;2022-09-09T04:15:33;58.22;;;25.25;;
40449;SDS011;41787;53.570;10.032;2022-09-09T04:18:00;79.18;;;26.13;;
40449;SDS011;41787;53.570;10.032;2022-09-09T04:20:26;52.30;;;25.73;;
40449;SDS011;41787;53.570;10.032;2022-09-09T04:22:52;51.33;;;24.20;;
40449;SDS011;41787;53.570;10.032;2022-09-09T04:25:18;60.63;;;25.55;;
40449;SDS011;41787;53.570;10.032;2022-09-09T04:27:44;54.17;;;24.73;;
40449;SDS011;41787;53.570;10.032;2022-09-09T04:30:10;55.22;;;25.83;;
40449;SDS011;41787;53.570;10.032;2022-09-09T04:32:37;50.42;;;24.98;;
40449;SDS011;41787;53.570;10.032;2022-09-09T04:35:03;52.13;;;23.95;;
40449;SDS011;41787;53.570;10.032;2022-09-09T04:37:29;42.80;;;23.00;;
40449;SDS011;41787;53.570;10.032;2022-09-09T04:39:55;40.22;;;22.48;;
40449;SDS011;41787;53.570;10.032;2022-09-09T04:42:21;48.22;;;23.42;;
40449;SDS011;41787;53.570;10.032;2022-09-09T04:44:47;43.70;;;22.75;;
40449;SDS011;41787;53.570;10.032;2022-09-09T04:47:13;45.92;;;22.25;;
40449;SDS011;41787;53.570;10.032;2022-09-09T04:49:39;41.13;;;20.85;;
40449;SDS011;41787;53.570;10.032;2022-09-09T04:52:06;40.55;;;21.25;;
40449;SDS011;41787;53.570;10.032;2022-09-09T04:54:32;40.28;;;19.85;;
40449;SDS011;41787;53.570;10.032;2022-09-09T04:56:57;37.45;;;21.20;;
40449;SDS011;41787;53.570;10.032;2022-09-09T04:59:23;35.30;;;20.13;;
40449;SDS011;41787;53.570;10.032;2022-09-09T05:01:50;32.25;;;19.05;;
40449;SDS011;41787;53.570;10.032;2022-09-09T05:04:16;34.63;;;19.65;;
40449;SDS011;41787;53.570;10.032;2022-09-09T05:06:42;31.40;;;17.45;;
40449;SDS011;41787;53.570;10.032;2022-09-09T05:09:08;32.42;;;18.25;;
40449;SDS011;41787;53.570;10.032;2022-09-09T05:11:34;29.85;;;17.88;;
40449;SDS011;41787;53.570;10.032;2022-09-09T05:14:03;28.80;;;17.70;;
40449;SDS011;41787;53.570;10.032;2022-09-09T05:16:29;26.25;;;16.75;;
40449;SDS011;41787;53.570;10.032;2022-09-09T05:18:56;30.27;;;17.50;;
40449;SDS011;41787;53.570;10.032;2022-09-09T05:21:23;26.85;;;17.90;;
40449;SDS011;41787;53.570;10.032;2022-09-09T05:23:51;26.13;;;17.35;;
40449;SDS011;41787;53.570;10.032;2022-09-09T05:26:19;28.33;;;16.35;;
40449;SDS011;41787;53.570;10.032;2022-09-09T05:28:45;28.85;;;16.83;;
40449;SDS011;41787;53.570;10.032;2022-09-09T05:31:12;32.92;;;17.90;;
40449;SDS011;41787;53.570;10.032;2022-09-09T05:33:39;28.75;;;16.83;;
40449;SDS011;41787;53.570;10.032;2022-09-09T05:36:09;31.85;;;18.10;;
40449;SDS011;41787;53.570;10.032;2022-09-09T05:38:37;26.35;;;17.08;;
40449;SDS011;41787;53.570;10.032;2022-09-09T05:41:04;28.02;;;18.00;;
40449;SDS011;41787;53.570;10.032;2022-09-09T05:43:30;28.00;;;17.80;;
40449;SDS011;41787;53.570;10.032;2022-09-09T05:46:13;29.73;;;17.73;;
40449;SDS011;41787;53.570;10.032;2022-09-09T05:48:40;24.23;;;16.75;;
40449;SDS011;41787;53.570;10.032;2022-09-09T05:51:08;27.48;;;17.27;;
40449;SDS011;41787;53.570;10.032;2022-09-09T05:53:34;25.45;;;16.77;;
40449;SDS011;41787;53.570;10.032;2022-09-09T05:56:01;27.38;;;17.15;;
40449;SDS011;41787;53.570;10.032;2022-09-09T05:58:28;24.92;;;16.40;;
40449;SDS011;41787;53.570;10.032;2022-09-09T06:00:59;23.42;;;14.68;;
40449;SDS011;41787;53.570;10.032;2022-09-09T06:03:26;23.63;;;15.85;;
40449;SDS011;41787;53.570;10.032;2022-09-09T06:05:59;23.83;;;14.63;;
40449;SDS011;41787;53.570;10.032;2022-09-09T06:08:25;22.70;;;14.45;;
40449;SDS011;41787;53.570;10.032;2022-09-09T06:10:51;18.80;;;14.30;;
40449;SDS011;41787;53.570;10.032;2022-09-09T06:13:17;25.00;;;14.93;;
40449;SDS011;41787;53.570;10.032;2022-09-09T06:15:52;23.48;;;13.48;;
40449;SDS011;41787;53.570;10.032;2022-09-09T06:18:18;19.13;;;12.82;;
40449;SDS011;41787;53.570;10.032;2022-09-09T06:20:57;19.42;;;12.02;;
40449;SDS011;41787;53.570;10.032;2022-09-09T06:23:24;19.08;;;10.82;;
40449;SDS011;41787;53.570;10.032;2022-09-09T06:25:50;17.92;;;10.68;;
40449;SDS011;41787;53.570;10.032;2022-09-09T06:28:16;17.83;;;10.88;;
40449;SDS011;41787;53.570;10.032;2022-09-09T06:30:43;21.65;;;11.82;;
40449;SDS011;41787;53.570;10.032;2022-09-09T06:33:09;19.52;;;11.23;;
40449;SDS011;41787;53.570;10.032;2022-09-09T06:35:35;16.35;;;10.48;;
40449;SDS011;41787;53.570;10.032;2022-09-09T06:38:01;17.58;;;11.73;;
40449;SDS011;41787;53.570;10.032;2022-09-09T06:40:28;18.80;;;10.93;;
40449;SDS011;41787;53.570;10.032;2022-09-09T06:43:00;18.13;;;11.10;;
40449;SDS011;41787;53.570;10.032;2022-09-09T06:45:26;17.60;;;10.77;;
40449;SDS011;41787;53.570;10.032;2022-09-09T06:47:54;14.85;;;11.00;;
40449;SDS011;41787;53.570;10.032;2022-09-09T06:50:21;13.15;;;9.98;;
40449;SDS011;41787;53.570;10.032;2022-09-09T06:52:47;19.25;;;10.35;;
40449;SDS011;41787;53.570;10.032;2022-09-09T06:55:13;17.10;;;10.27;;
40449;SDS011;41787;53.570;10.032;2022-09-09T06:57:40;13.48;;;9.43;;
40449;SDS011;41787;53.570;10.032;2022-09-09T07:00:06;17.25;;;9.15;;
40449;SDS011;41787;53.570;10.032;2022-09-09T07:02:33;15.38;;;10.18;;
40449;SDS011;41787;53.570;10.032;2022-09-09T07:05:03;14.05;;;9.07;;
40449;SDS011;41787;53.570;10.032;2022-09-09T07:07:29;12.88;;;8.27;;
40449;SDS011;41787;53.570;10.032;2022-09-09T07:09:56;13.00;;;8.98;;
40449;SDS011;41787;53.570;10.032;2022-09-09T07:12:22;12.45;;;8.25;;
40449;SDS011;41787;53.570;10.032;2022-09-09T07:14:48;13.52;;;8.80;;
40449;SDS011;41787;53.570;10.032;2022-09-09T07:17:14;17.63;;;8.80;;
40449;SDS011;41787;53.570;10.032;2022-09-09T07:19:43;9.10;;;7.15;;
40449;SDS011;41787;53.570;10.032;2022-09-09T07:22:09;12.40;;;7.38;;
40449;SDS011;41787;53.570;10.032;2022-09-09T07:24:35;10.02;;;7.18;;
40449;SDS011;41787;53.570;10.032;2022-09-09T07:27:02;9.43;;;7.03;;
40449;SDS011;41787;53.570;10.032;2022-09-09T07:29:28;13.68;;;7.60;;
40449;SDS011;41787;53.570;10.032;2022-09-09T07:31:54;13.63;;;6.78;;
40449;SDS011;41787;53.570;10.032;2022-09-09T07:34:20;12.18;;;7.10;;
40449;SDS011;41787;53.570;10.032;2022-09-09T07:36:46;9.85;;;6.70;;
40449;SDS011;41787;53.570;10.032;2022-09-09T07:39:12;12.32;;;6.75;;
40449;SDS011;41787;53.570;10.032;2022-09-09T07:41:39;12.73;;;6.50;;
40449;SDS011;41787;53.570;10.032;2022-09-09T07:44:07;12.35;;;6.85;;
40449;SDS011;41787;53.570;10.032;2022-09-09T07:46:33;8.82;;;5.50;;
40449;SDS011;41787;53.570;10.032;2022-09-09T07:48:59;12.40;;;5.20;;
40449;SDS011;41787;53.570;10.032;2022-09-09T07:51:27;10.68;;;4.75;;
40449;SDS011;41787;53.570;10.032;2022-09-09T07:53:54;8.90;;;5.50;;
40449;SDS011;41787;53.570;10.032;2022-09-09T07:56:22;8.77;;;4.93;;
40449;SDS011;41787;53.570;10.032;2022-09-09T07:58:48;10.27;;;4.65;;
40449;SDS011;41787;53.570;10.032;2022-09-09T08:01:16;7.28;;;4.32;;
40449;SDS011;41787;53.570;10.032;2022-09-09T08:03:45;7.03;;;4.60;;
40449;SDS011;41787;53.570;10.032;2022-09-09T08:06:11;10.50;;;5.15;;
40449;SDS011;41787;53.570;10.032;2022-09-09T08:08:38;12.10;;;4.90;;
40449;SDS011;41787;53.570;10.032;2022-09-09T08:13:35;7.88;;;4.75;;
40449;SDS011;41787;53.570;10.032;2022-09-09T08:16:05;9.88;;;4.30;;
40449;SDS011;41787;53.570;10.032;2022-09-09T08:20:57;6.80;;;4.00;;
40449;SDS011;41787;53.570;10.032;2022-09-09T08:23:26;7.45;;;3.97;;
40449;SDS011;41787;53.570;10.032;2022-09-09T08:25:52;8.63;;;4.45;;
40449;SDS011;41787;53.570;10.032;2022-09-09T08:28:18;7.20;;;4.40;;
40449;SDS011;41787;53.570;10.032;2022-09-09T08:30:44;6.93;;;4.80;;
40449;SDS011;41787;53.570;10.032;2022-09-09T08:33:10;9.68;;;4.30;;
40449;SDS011;41787;53.570;10.032;2022-09-09T08:35:36;10.57;;;3.90;;
40449;SDS011;41787;53.570;10.032;2022-09-09T08:38:03;6.03;;;4.28;;
40449;SDS011;41787;53.570;10.032;2022-09-09T08:40:29;9.82;;;4.63;;
40449;SDS011;41787;53.570;10.032;2022-09-09T08:42:56;8.77;;;4.07;;
40449;SDS011;41787;53.570;10.032;2022-09-09T08:45:30;8.93;;;5.18;;
40449;SDS011;41787;53.570;10.032;2022-09-09T08:50:41;7.57;;;3.67;;
40449;SDS011;41787;53.570;10.032;2022-09-09T08:58:09;6.13;;;3.00;;
40449;SDS011;41787;53.570;10.032;2022-09-09T09:00:40;3.60;;;3.22;;
40449;SDS011;41787;53.570;10.032;2022-09-09T09:06:01;6.85;;;3.15;;
40449;SDS011;41787;53.570;10.032;2022-09-09T09:08:33;6.90;;;3.33;;
40449;SDS011;41787;53.570;10.032;2022-09-09T09:11:03;9.30;;;4.35;;
40449;SDS011;41787;53.570;10.032;2022-09-09T09:14:14;5.53;;;3.10;;
40449;SDS011;41787;53.570;10.032;2022-09-09T09:16:23;4.03;;;3.15;;
40449;SDS011;41787;53.570;10.032;2022-09-09T09:18:49;8.35;;;3.65;;
40449;SDS011;41787;53.570;10.032;2022-09-09T09:21:17;4.60;;;2.97;;
40449;SDS011;41787;53.570;10.032;2022-09-09T09:26:21;3.70;;;2.05;;
40449;SDS011;41787;53.570;10.032;2022-09-09T09:28:49;7.43;;;2.50;;
40449;SDS011;41787;53.570;10.032;2022-09-09T09:31:16;6.65;;;2.10;;
40449;SDS011;41787;53.570;10.032;2022-09-09T09:33:49;7.05;;;2.03;;
40449;SDS011;41787;53.570;10.032;2022-09-09T09:36:17;4.65;;;1.73;;
40449;SDS011;41787;53.570;10.032;2022-09-09T09:43:55;4.40;;;1.65;;
40449;SDS011;41787;53.570;10.032;2022-09-09T09:46:22;6.28;;;2.15;;
40449;SDS011;41787;53.570;10.032;2022-09-09T09:51:23;4.32;;;1.83;;
40449;SDS011;41787;53.570;10.032;2022-09-09T09:53:50;5.63;;;1.80;;
40449;SDS011;41787;53.570;10.032;2022-09-09T09:56:18;5.93;;;1.85;;
40449;SDS011;41787;53.570;10.032;2022-09-09T09:58:52;4.57;;;1.50;;
40449;SDS011;41787;53.570;10.032;2022-09-09T10:01:26;7.07;;;1.63;;
40449;SDS011;41787;53.570;10.032;2022-09-09T10:04:02;7.13;;;2.25;;
40449;SDS011;41787;53.570;10.032;2022-09-09T10:06:33;5.20;;;2.05;;
40449;SDS011;41787;53.570;10.032;2022-09-09T10:08:59;5.85;;;1.60;;
40449;SDS011;41787;53.570;10.032;2022-09-09T10:11:33;5.38;;;1.58;;
40449;SDS011;41787;53.570;10.032;2022-09-09T10:19:09;4.30;;;2.30;;
40449;SDS011;41787;53.570;10.032;2022-09-09T10:24:07;5.00;;;2.13;;
40449;SDS011;41787;53.570;10.032;2022-09-09T10:26:49;8.10;;;1.92;;
40449;SDS011;41787;53.570;10.032;2022-09-09T10:40:06;3.55;;;1.33;;
40449;SDS011;41787;53.570;10.032;2022-09-09T10:42:37;7.90;;;2.10;;
40449;SDS011;41787;53.570;10.032;2022-09-09T10:45:15;2.95;;;1.27;;
40449;SDS011;41787;53.570;10.032;2022-09-09T10:48:29;6.13;;;1.23;;
40449;SDS011;41787;53.570;10.032;2022-09-09T10:50:40;3.65;;;1.00;;
40449;SDS011;41787;53.570;10.032;2022-09-09T10:53:11;6.53;;;1.30;;
40449;SDS011;41787;53.570;10.032;2022-09-09T10:55:44;2.88;;;1.58;;
40449;SDS011;41787;53.570;10.032;2022-09-09T10:58:15;1.55;;;0.80;;
40449;SDS011;41787;53.570;10.032;2022-09-09T11:00:44;3.83;;;0.93;;
40449;SDS011;41787;53.570;10.032;2022-09-09T11:03:17;2.35;;;0.70;;
40449;SDS011;41787;53.570;10.032;2022-09-09T11:08:18;2.90;;;0.98;;
40449;SDS011;41787;53.570;10.032;2022-09-09T11:10:45;4.07;;;0.90;;
40449;SDS011;41787;53.570;10.032;2022-09-09T11:13:15;4.82;;;1.00;;
40449;SDS011;41787;53.570;10.032;2022-09-09T11:15:48;5.20;;;0.90;;
40449;SDS011;41787;53.570;10.032;2022-09-09T11:18:22;6.45;;;0.55;;
40449;SDS011;41787;53.570;10.032;2022-09-09T11:20:50;4.82;;;1.23;;
40449;SDS011;41787;53.570;10.032;2022-09-09T11:23:22;3.33;;;1.33;;
40449;SDS011;41787;53.570;10.032;2022-09-09T11:25:54;3.15;;;1.20;;
40449;SDS011;41787;53.570;10.032;2022-09-09T11:28:39;5.50;;;1.08;;
40449;SDS011;41787;53.570;10.032;2022-09-09T11:33:48;3.72;;;1.10;;
40449;SDS011;41787;53.570;10.032;2022-09-09T11:38:50;9.68;;;0.98;;
40449;SDS011;41787;53.570;10.032;2022-09-09T11:41:16;5.38;;;1.15;;
40449;SDS011;41787;53.570;10.032;2022-09-09T11:46:12;2.45;;;1.05;;
40449;SDS011;41787;53.570;10.032;2022-09-09T11:48:41;2.65;;;0.70;;
40449;SDS011;41787;53.570;10.032;2022-09-09T11:53:58;4.82;;;0.90;;
40449;SDS011;41787;53.570;10.032;2022-09-09T11:56:47;5.53;;;1.08;;
40449;SDS011;41787;53.570;10.032;2022-09-09T11:59:22;4.85;;;1.95;;
40449;SDS011;41787;53.570;10.032;2022-09-09T12:06:54;4.38;;;1.05;;
40449;SDS011;41787;53.570;10.032;2022-09-09T12:09:31;5.80;;;1.20;;
40449;SDS011;41787;53.570;10.032;2022-09-09T12:12:05;4.72;;;1.00;;
40449;SDS011;41787;53.570;10.032;2022-09-09T12:14:36;4.05;;;1.02;;
40449;SDS011;41787;53.570;10.032;2022-09-09T12:17:10;3.97;;;1.13;;
40449;SDS011;41787;53.570;10.032;2022-09-09T12:19:43;5.15;;;1.33;;
40449;SDS011;41787;53.570;10.032;2022-09-09T12:27:22;4.32;;;1.15;;
40449;SDS011;41787;53.570;10.032;2022-09-09T12:29:53;10.68;;;2.30;;
40449;SDS011;41787;53.570;10.032;2022-09-09T12:32:24;5.78;;;1.00;;
40449;SDS011;41787;53.570;10.032;2022-09-09T12:39:58;3.42;;;1.30;;
40449;SDS011;41787;53.570;10.032;2022-09-09T12:42:25;3.63;;;1.20;;
40449;SDS011;41787;53.570;10.032;2022-09-09T12:44:55;6.07;;;1.30;;
40449;SDS011;41787;53.570;10.032;2022-09-09T12:47:22;3.67;;;1.20;;
40449;SDS011;41787;53.570;10.032;2022-09-09T12:49:50;3.40;;;0.98;;
40449;SDS011;41787;53.570;10.032;2022-09-09T12:52:24;2.75;;;1.05;;
40449;SDS011;41787;53.570;10.032;2022-09-09T12:54:51;7.18;;;1.20;;
40449;SDS011;41787;53.570;10.032;2022-09-09T12:57:18;4.40;;;1.30;;
40449;SDS011;41787;53.570;10.032;2022-09-09T12:59:45;4.13;;;1.38;;
40449;SDS011;41787;53.570;10.032;2022-09-09T13:02:21;3.28;;;1.10;;
40449;SDS011;41787;53.570;10.032;2022-09-09T13:04:47;3.33;;;1.30;;
40449;SDS011;41787;53.570;10.032;2022-09-09T13:07:15;4.78;;;1.42;;
40449;SDS011;41787;53.570;10.032;2022-09-09T13:09:41;6.88;;;1.45;;
40449;SDS011;41787;53.570;10.032;2022-09-09T13:12:11;8.25;;;2.00;;
40449;SDS011;41787;53.570;10.032;2022-09-09T13:14:38;6.88;;;1.50;;
40449;SDS011;41787;53.570;10.032;2022-09-09T13:17:05;4.28;;;2.03;;
40449;SDS011;41787;53.570;10.032;2022-09-09T13:19:33;3.25;;;1.67;;
40449;SDS011;41787;53.570;10.032;2022-09-09T13:22:11;3.95;;;1.55;;
40449;SDS011;41787;53.570;10.032;2022-09-09T13:24:38;6.07;;;2.55;;
40449;SDS011;41787;53.570;10.032;2022-09-09T13:30:21;7.13;;;1.83;;
40449;SDS011;41787;53.570;10.032;2022-09-09T13:32:59;3.47;;;1.67;;
40449;SDS011;41787;53.570;10.032;2022-09-09T13:35:26;5.28;;;1.58;;
40449;SDS011;41787;53.570;10.032;2022-09-09T13:37:52;4.82;;;1.80;;
40449;SDS011;41787;53.570;10.032;2022-09-09T13:40:20;5.60;;;2.00;;
40449;SDS011;41787;53.570;10.032;2022-09-09T13:42:54;8.10;;;2.75;;
40449;SDS011;41787;53.570;10.032;2022-09-09T13:45:22;11.05;;;3.17;;
40449;SDS011;41787;53.570;10.032;2022-09-09T13:47:49;5.90;;;2.85;;
40449;SDS011;41787;53.570;10.032;2022-09-09T13:52:49;8.68;;;2.88;;
40449;SDS011;41787;53.570;10.032;2022-09-09T13:55:16;7.95;;;2.78;;
40449;SDS011;41787;53.570;10.032;2022-09-09T13:57:52;10.25;;;3.10;;
40449;SDS011;41787;53.570;10.032;2022-09-09T14:00:18;5.90;;;2.88;;
40449;SDS011;41787;53.570;10.032;2022-09-09T14:02:45;9.35;;;3.20;;
40449;SDS011;41787;53.570;10.032;2022-09-09T14:05:11;6.65;;;3.55;;
40449;SDS011;41787;53.570;10.032;2022-09-09T14:07:38;7.10;;;3.35;;
40449;SDS011;41787;53.570;10.032;2022-09-09T14:10:05;6.50;;;3.78;;
40449;SDS011;41787;53.570;10.032;2022-09-09T14:12:32;8.13;;;3.85;;
40449;SDS011;41787;53.570;10.032;2022-09-09T14:14:57;10.00;;;4.65;;
40449;SDS011;41787;53.570;10.032;2022-09-09T14:17:24;16.38;;;4.55;;
40449;SDS011;41787;53.570;10.032;2022-09-09T14:19:55;14.27;;;5.72;;
40449;SDS011;41787;53.570;10.032;2022-09-09T14:22:21;9.35;;;4.20;;
40449;SDS011;41787;53.570;10.032;2022-09-09T14:24:47;9.43;;;3.92;;
40449;SDS011;41787;53.570;10.032;2022-09-09T14:27:13;6.15;;;3.65;;
40449;SDS011;41787;53.570;10.032;2022-09-09T14:29:39;10.60;;;4.70;;
40449;SDS011;41787;53.570;10.032;2022-09-09T14:32:05;9.13;;;4.60;;
40449;SDS011;41787;53.570;10.032;2022-09-09T14:34:31;12.73;;;5.07;;
40449;SDS011;41787;53.570;10.032;2022-09-09T14:36:57;7.15;;;4.57;;
40449;SDS011;41787;53.570;10.032;2022-09-09T14:39:23;5.45;;;2.85;;
40449;SDS011;41787;53.570;10.032;2022-09-09T14:41:49;4.88;;;2.75;;
40449;SDS011;41787;53.570;10.032;2022-09-09T14:44:15;6.68;;;2.65;;
40449;SDS011;41787;53.570;10.032;2022-09-09T14:46:41;7.78;;;2.35;;
40449;SDS011;41787;53.570;10.032;2022-09-09T14:49:10;6.60;;;2.08;;
40449;SDS011;41787;53.570;10.032;2022-09-09T14:51:37;3.30;;;2.13;;
40449;SDS011;41787;53.570;10.032;2022-09-09T14:54:04;3.63;;;1.90;;
40449;SDS011;41787;53.570;10.032;2022-09-09T14:56:31;6.18;;;2.20;;
40449;SDS011;41787;53.570;10.032;2022-09-09T14:58:59;4.85;;;1.60;;
40449;SDS011;41787;53.570;10.032;2022-09-09T15:01:26;5.55;;;2.30;;
40449;SDS011;41787;53.570;10.032;2022-09-09T15:04:02;5.47;;;2.40;;
40449;SDS011;41787;53.570;10.032;2022-09-09T15:06:29;9.98;;;2.78;;
40449;SDS011;41787;53.570;10.032;2022-09-09T15:08:56;7.32;;;2.35;;
40449;SDS011;41787;53.570;10.032;2022-09-09T15:11:22;7.45;;;3.03;;
40449;SDS011;41787;53.570;10.032;2022-09-09T15:13:50;8.00;;;3.55;;
40449;SDS011;41787;53.570;10.032;2022-09-09T15:16:18;5.15;;;3.10;;
40449;SDS011;41787;53.570;10.032;2022-09-09T15:18:45;5.60;;;3.15;;
40449;SDS011;41787;53.570;10.032;2022-09-09T15:21:11;11.43;;;3.65;;
40449;SDS011;41787;53.570;10.032;2022-09-09T15:23:38;4.85;;;3.05;;
40449;SDS011;41787;53.570;10.032;2022-09-09T15:26:04;6.63;;;2.72;;
40449;SDS011;41787;53.570;10.032;2022-09-09T15:28:33;5.97;;;2.97;;
40449;SDS011;41787;53.570;10.032;2022-09-09T15:31:10;7.50;;;2.25;;
40449;SDS011;41787;53.570;10.032;2022-09-09T15:33:36;5.40;;;2.17;;
40449;SDS011;41787;53.570;10.032;2022-09-09T15:36:13;3.10;;;1.80;;
40449;SDS011;41787;53.570;10.032;2022-09-09T15:38:39;6.25;;;2.00;;
40449;SDS011;41787;53.570;10.032;2022-09-09T15:41:05;11.93;;;2.20;;
40449;SDS011;41787;53.570;10.032;2022-09-09T15:43:31;4.47;;;1.77;;
40449;SDS011;41787;53.570;10.032;2022-09-09T15:45:59;5.45;;;1.75;;
40449;SDS011;41787;53.570;10.032;2022-09-09T15:48:31;6.32;;;2.17;;
40449;SDS011;41787;53.570;10.032;2022-09-09T15:51:01;9.93;;;3.67;;
40449;SDS011;41787;53.570;10.032;2022-09-09T15:53:27;8.68;;;2.72;;
40449;SDS011;41787;53.570;10.032;2022-09-09T15:55:54;9.13;;;2.85;;
40449;SDS011;41787;53.570;10.032;2022-09-09T15:58:20;5.50;;;2.00;;
40449;SDS011;41787;53.570;10.032;2022-09-09T16:00:46;3.90;;;1.65;;
40449;SDS011;41787;53.570;10.032;2022-09-09T16:03:12;3.55;;;1.50;;
40449;SDS011;41787;53.570;10.032;2022-09-09T16:05:38;5.97;;;1.65;;
40449;SDS011;41787;53.570;10.032;2022-09-09T16:08:05;3.80;;;1.60;;
40449;SDS011;41787;53.570;10.032;2022-09-09T16:10:31;6.03;;;1.63;;
40449;SDS011;41787;53.570;10.032;2022-09-09T16:12:57;2.80;;;1.25;;
40449;SDS011;41787;53.570;10.032;2022-09-09T16:15:23;5.15;;;1.45;;
40449;SDS011;41787;53.570;10.032;2022-09-09T16:17:52;4.35;;;1.80;;
40449;SDS011;41787;53.570;10.032;2022-09-09T16:20:18;3.58;;;1.40;;
40449;SDS011;41787;53.570;10.032;2022-09-09T16:22:45;3.50;;;1.42;;
40449;SDS011;41787;53.570;10.032;2022-09-09T16:25:11;4.30;;;1.35;;